Time;durP1;ratioP1;P1;durP2;ratioP2;P2;SDS_P1;SDS_P2;PMS_P1;PMS_P2;Temp;Humidity;BMP_temperature;BMP_pressure;BME280_temperature;BME280_humidity;BME280_pressure;Samples;Min_cycle;Max_cycle;Signal;HPM_P1;HPM_P2
2023/12/23 00:01:39;;;;;;;4.97;1.20;;;;;;;11.18;63.65;100911.47;4766439;29;125135;-75
2023/12/23 00:04:06;;;;;;;4.38;1.27;;;;;;;11.18;63.42;100914.97;4774690;29;121482;-75
2023/12/23 00:06:33;;;;;;;4.47;0.80;;;;;;;11.18;63.68;100903.50;4760191;29;119838;-74
2023/12/23 00:09:00;;;;;;;6.30;0.98;;;;;;;11.16;63.54;100900.94;4778359;29;123889;-75
2023/12/23 00:11:27;;;;;;;6.80;1.30;;;;;;;11.17;63.52;100891.19;4766812;29;124068;-75
2023/12/23 00:13:55;;;;;;;5.78;0.95;;;;;;;11.17;63.63;100897.34;4769687;29;119588;-75
2023/12/23 00:16:24;;;;;;;4.72;1.27;;;;;;;11.18;63.53;100908.81;4753324;29;117961;-75
2023/12/23 00:18:51;;;;;;;10.35;1.50;;;;;;;11.17;63.39;100907.06;4756160;29;123775;-75
2023/12/23 00:21:18;;;;;;;4.68;1.10;;;;;;;11.16;63.56;100905.38;4775042;29;123541;-75
2023/12/23 00:23:45;;;;;;;5.05;1.02;;;;;;;11.15;63.49;100903.66;4767925;29;118837;-74
2023/12/23 00:26:13;;;;;;;6.55;1.08;;;;;;;11.15;63.54;100908.94;4766823;29;117804;-74
2023/12/23 00:28:43;;;;;;;5.85;1.25;;;;;;;11.14;63.64;100901.94;4774034;29;124064;-73
2023/12/23 00:31:10;;;;;;;8.30;1.10;;;;;;;11.14;63.62;100907.25;4766536;29;124607;-74
2023/12/23 00:33:37;;;;;;;5.30;1.00;;;;;;;11.10;63.44;100907.38;4766755;29;119109;-74
2023/12/23 00:36:05;;;;;;;3.63;1.10;;;;;;;11.12;63.64;100914.41;4754700;29;118605;-75
2023/12/23 00:38:34;;;;;;;6.32;0.90;;;;;;;11.10;63.58;100910.03;4771058;29;123075;-74
2023/12/23 00:41:01;;;;;;;6.65;1.20;;;;;;;11.10;63.64;100910.03;4760546;29;124001;-74
2023/12/23 00:43:28;;;;;;;5.50;1.00;;;;;;;11.09;63.66;100904.78;4777184;29;119724;-75
2023/12/23 00:45:55;;;;;;;5.82;1.13;;;;;;;11.07;63.72;100886.31;4778531;29;118991;-75
2023/12/23 00:48:22;;;;;;;4.57;0.90;;;;;;;11.08;63.64;100888.03;4758598;29;124341;-74
2023/12/23 00:50:49;;;;;;;5.43;1.05;;;;;;;11.09;63.89;100883.59;4771907;29;123315;-74
2023/12/23 00:53:17;;;;;;;4.70;1.00;;;;;;;11.08;63.75;100882.72;4748839;29;119549;-74
2023/12/23 00:55:45;;;;;;;4.85;1.10;;;;;;;11.07;63.85;100881.00;4756469;29;120014;-74
2023/12/23 00:58:12;;;;;;;5.97;1.25;;;;;;;11.07;63.79;100881.00;4766860;29;123562;-75
2023/12/23 01:00:39;;;;;;;4.70;0.90;;;;;;;11.08;63.89;100887.19;4772874;29;122627;-74
2023/12/23 01:03:06;;;;;;;6.32;0.82;;;;;;;11.07;63.96;100881.00;4774279;29;119879;-74
2023/12/23 01:05:33;;;;;;;2.28;0.85;;;;;;;11.08;63.98;100887.19;4763375;29;118506;-75
2023/12/23 01:08:00;;;;;;;5.57;1.27;;;;;;;11.07;63.77;100881.00;4770620;29;124362;-75
2023/12/23 01:10:28;;;;;;;7.53;1.20;;;;;;;11.08;64.05;100881.88;4753872;29;123034;-74
2023/12/23 01:12:55;;;;;;;6.28;1.10;;;;;;;11.06;63.68;100884.59;4773746;29;119610;-75
2023/12/23 01:15:22;;;;;;;4.90;1.13;;;;;;;11.06;64.09;100889.03;4772779;29;119985;-74
2023/12/23 01:17:49;;;;;;;5.65;1.05;;;;;;;11.04;63.95;100886.47;4754312;29;123277;-74
2023/12/23 01:20:17;;;;;;;7.03;0.95;;;;;;;11.04;64.19;100881.16;4768666;29;124800;-74
2023/12/23 01:22:44;;;;;;;6.22;1.10;;;;;;;11.03;64.27;100874.13;4752613;29;118739;-74
2023/12/23 01:25:12;;;;;;;7.20;1.10;;;;;;;11.03;64.30;100871.47;4766597;29;118528;-74
2023/12/23 01:27:39;;;;;;;4.18;1.13;;;;;;;11.02;64.40;100877.72;4757750;29;123925;-74
2023/12/23 01:30:07;;;;;;;5.45;1.02;;;;;;;11.01;64.37;100865.38;4769956;29;123922;-74
2023/12/23 01:32:34;;;;;;;7.22;1.00;;;;;;;11.02;64.40;100867.13;4768477;29;119640;-75
2023/12/23 01:35:01;;;;;;;3.60;0.98;;;;;;;11.03;64.45;100858.22;4759761;29;118981;-74
2023/12/23 01:37:29;;;;;;;4.40;1.25;;;;;;;11.04;64.45;100859.97;4766111;29;124011;-74
2023/12/23 01:39:56;;;;;;;5.03;1.20;;;;;;;11.04;64.58;100849.34;4759701;29;124237;-74
2023/12/23 01:42:23;;;;;;;9.73;1.40;;;;;;;11.03;64.74;100844.97;4769960;29;120298;-75
2023/12/23 01:44:50;;;;;;;4.85;1.15;;;;;;;11.04;64.74;100849.34;4773275;29;119813;-74
2023/12/23 01:47:17;;;;;;;4.72;1.10;;;;;;;11.06;64.61;100847.50;4768514;29;124878;-74
2023/12/23 01:49:47;;;;;;;8.60;1.10;;;;;;;11.06;64.84;100836.88;4754990;29;122995;-75
2023/12/23 01:52:14;;;;;;;5.78;1.38;;;;;;;11.08;64.88;100839.47;4768609;29;120360;-75
2023/12/23 01:54:42;;;;;;;5.68;1.20;;;;;;;11.09;64.76;100820.84;4774208;29;119024;-74
2023/12/23 01:57:09;;;;;;;4.45;1.00;;;;;;;11.12;64.99;100826.94;4760296;29;123302;-74
2023/12/23 01:59:36;;;;;;;7.60;1.08;;;;;;;11.12;64.90;100816.34;4757300;29;122817;-74
2023/12/23 02:02:05;;;;;;;4.50;1.20;;;;;;;11.14;65.03;100833.03;4753442;29;118734;-74
2023/12/23 02:04:33;;;;;;;4.90;1.17;;;;;;;11.15;65.00;100829.41;4775567;29;119627;-75
2023/12/23 02:07:00;;;;;;;4.28;1.17;;;;;;;11.16;64.97;100820.56;4760245;29;124087;-75
2023/12/23 02:09:27;;;;;;;6.60;1.27;;;;;;;11.16;65.11;100824.06;4776571;29;123923;-74
2023/12/23 02:12:34;;;;;;;3.00;1.30;;;;;;;11.17;65.14;100827.56;4759870;29;118359;-74
2023/12/23 02:15:09;;;;;;;5.25;1.40;;;;;;;11.19;65.09;100831.00;4766987;29;118667;-74
2023/12/23 02:17:40;;;;;;;10.95;1.60;;;;;;;11.18;65.16;100822.19;4773326;29;124466;-74
2023/12/23 02:20:08;;;;;;;7.78;2.05;;;;;;;11.20;65.29;100806.22;4764460;29;123441;-74
2023/12/23 02:22:35;;;;;;;2.58;1.38;;;;;;;11.20;65.07;100800.91;4744146;29;118392;-74
2023/12/23 02:25:02;;;;;;;9.77;2.00;;;;;;;11.21;65.26;100802.66;4755560;29;117911;-74
2023/12/23 02:27:45;;;;;;;9.73;2.10;;;;;;;11.20;65.30;100801.75;4773668;29;123941;-75
2023/12/23 02:30:15;;;;;;;7.72;1.80;;;;;;;11.21;65.36;100792.03;4772794;29;124304;-74
2023/12/23 02:32:44;;;;;;;7.30;1.90;;;;;;;11.21;65.25;100776.97;4752996;29;120208;-75
2023/12/23 02:35:12;;;;;;;4.55;1.80;;;;;;;11.23;65.28;100776.91;4773337;29;119043;-74
2023/12/23 02:37:41;;;;;;;10.13;1.77;;;;;;;11.24;65.60;100775.97;4768438;29;123896;-75
2023/12/23 02:40:10;;;;;;;9.45;2.42;;;;;;;11.26;65.69;100759.06;4765461;29;124039;-74
2023/12/23 02:42:37;;;;;;;6.20;1.70;;;;;;;11.30;65.88;100754.44;4753022;29;118445;-74
2023/12/23 02:45:05;;;;;;;11.52;1.88;;;;;;;11.34;65.92;100750.72;4776208;29;119887;-74
2023/12/23 02:47:32;;;;;;;6.55;2.03;;;;;;;11.40;66.15;100739.81;4759513;29;122481;-74
2023/12/23 02:50:01;;;;;;;11.30;1.80;;;;;;;11.45;66.36;100753.69;4765103;29;124289;-74
2023/12/23 02:52:28;;;;;;;9.82;1.88;;;;;;;11.52;66.36;100737.47;4764729;29;119223;-74
2023/12/23 02:54:55;;;;;;;7.85;1.90;;;;;;;11.60;66.52;100762.69;4751759;29;118825;-75
2023/12/23 02:57:23;;;;;;;8.27;1.73;;;;;;;11.67;66.68;100736.69;4751979;29;123603;-74
2023/12/23 02:59:50;;;;;;;10.95;1.98;;;;;;;11.76;66.67;100751.28;4768858;29;123800;-74
2023/12/23 03:02:17;;;;;;;11.43;1.95;;;;;;;11.82;66.66;100737.69;4768517;29;118764;-74
2023/12/23 03:04:44;;;;;;;12.95;1.90;;;;;;;11.88;66.63;100730.28;4773854;29;119180;-75
2023/12/23 03:07:11;;;;;;;9.38;1.77;;;;;;;11.95;66.79;100735.28;4756181;29;123088;-74
2023/12/23 03:09:39;;;;;;;8.65;1.60;;;;;;;11.99;66.54;100742.16;4773769;29;124071;-74
2023/12/23 03:12:07;;;;;;;8.52;2.03;;;;;;;12.02;66.63;100749.97;4761903;29;118303;-74
2023/12/23 03:14:34;;;;;;;8.73;1.90;;;;;;;12.07;66.72;100734.63;4770193;29;119089;-74
2023/12/23 03:17:01;;;;;;;11.23;1.88;;;;;;;12.09;66.61;100732.75;4753727;29;123830;-74
2023/12/23 03:19:29;;;;;;;6.18;1.80;;;;;;;12.12;66.54;100732.59;4768210;29;122292;-74
2023/12/23 03:21:57;;;;;;;11.60;1.77;;;;;;;12.14;66.20;100721.91;4770902;29;120538;-74
2023/12/23 03:24:24;;;;;;;11.90;2.05;;;;;;;12.15;66.53;100720.94;4770053;29;118529;-74
2023/12/23 03:26:51;;;;;;;8.80;1.65;;;;;;;12.16;66.53;100728.84;4773739;29;124039;-74
2023/12/23 03:29:19;;;;;;;7.68;1.60;;;;;;;12.16;66.23;100723.53;4766262;29;124652;-74
2023/12/23 03:31:46;;;;;;;9.15;1.63;;;;;;;12.17;66.52;100714.63;4773258;29;118728;-74
2023/12/23 03:34:13;;;;;;;9.80;1.67;;;;;;;12.19;66.43;100723.38;4754071;29;118618;-74
2023/12/23 03:36:40;;;;;;;10.35;1.83;;;;;;;12.20;66.44;100717.09;4755665;29;123074;-75
2023/12/23 03:39:08;;;;;;;10.23;1.50;;;;;;;12.22;66.40;100717.91;4759006;29;122631;-75
2023/12/23 03:41:35;;;;;;;6.05;1.75;;;;;;;12.23;66.51;100705.47;4750810;29;118138;-74
2023/12/23 03:44:02;;;;;;;8.38;1.67;;;;;;;12.23;66.41;100706.31;4774224;29;118789;-74
2023/12/23 03:46:30;;;;;;;8.43;1.88;;;;;;;12.24;66.53;100700.09;4772503;29;124712;-74
2023/12/23 03:48:58;;;;;;;10.55;2.00;;;;;;;12.26;66.41;100692.00;4773300;29;123337;-75
2023/12/23 03:51:26;;;;;;;8.43;1.67;;;;;;;12.29;66.43;100696.31;4771554;29;119511;-74
2023/12/23 03:53:53;;;;;;;6.32;1.58;;;;;;;12.31;66.36;100689.13;4755634;29;118140;-74
2023/12/23 03:56:21;;;;;;;8.80;2.10;;;;;;;12.34;66.38;100688.94;4774302;29;124322;-74
2023/12/23 03:58:48;;;;;;;8.07;1.60;;;;;;;12.36;66.25;100687.09;4757477;29;124029;-75
2023/12/23 04:01:17;;;;;;;11.50;1.67;;;;;;;12.39;66.33;100684.25;4753022;29;120016;-75
2023/12/23 04:03:45;;;;;;;8.85;2.10;;;;;;;12.42;66.13;100684.06;4763121;29;118749;-74
2023/12/23 04:06:13;;;;;;;7.75;1.60;;;;;;;12.45;66.33;100686.53;4757886;29;123273;-74
2023/12/23 04:08:41;;;;;;;8.52;1.85;;;;;;;12.47;66.01;100674.06;4777590;29;120741;-75
2023/12/23 04:11:08;;;;;;;8.27;1.90;;;;;;;12.50;65.93;100668.56;4771059;29;120001;-75
2023/12/23 04:13:37;;;;;;;7.18;1.42;;;;;;;12.52;65.93;100660.50;4763494;29;120185;-74
2023/12/23 04:16:04;;;;;;;8.35;2.15;;;;;;;12.54;65.66;100670.09;4776655;29;124291;-74
2023/12/23 04:18:32;;;;;;;9.32;1.60;;;;;;;12.55;65.73;100661.19;4750875;29;122951;-74
2023/12/23 04:20:59;;;;;;;10.20;1.90;;;;;;;12.58;65.37;100666.34;4771747;29;119693;-74
2023/12/23 04:23:26;;;;;;;10.00;1.70;;;;;;;12.60;65.34;100659.16;4744520;29;118259;-73
2023/12/23 04:25:54;;;;;;;8.20;2.10;;;;;;;12.61;65.30;100650.22;4765668;29;124157;-74
2023/12/23 04:28:24;;;;;;;6.25;1.75;;;;;;;12.63;65.29;100653.63;4773184;29;123863;-73
2023/12/23 04:30:54;;;;;;;8.50;2.17;;;;;;;12.65;65.24;100654.41;4761110;29;120378;-73
2023/12/23 04:33:23;;;;;;;6.80;1.60;;;;;;;12.69;65.01;100651.59;4752935;29;118267;-74
2023/12/23 04:35:51;;;;;;;9.10;1.67;;;;;;;12.70;64.94;100642.69;4769727;29;123932;-74
2023/12/23 04:38:19;;;;;;;11.18;1.73;;;;;;;12.70;64.80;100648.00;4758301;29;123663;-74
2023/12/23 04:40:46;;;;;;;6.85;1.35;;;;;;;12.72;64.89;100624.84;4742834;29;119470;-75
2023/12/23 04:43:13;;;;;;;8.13;1.83;;;;;;;12.74;64.71;100628.28;4751539;29;118069;-74
2023/12/23 04:45:41;;;;;;;6.20;1.70;;;;;;;12.75;64.80;100624.66;4771020;29;124081;-74
2023/12/23 04:48:08;;;;;;;8.63;1.48;;;;;;;12.76;64.85;100631.69;4768039;29;123374;-74
2023/12/23 04:50:35;;;;;;;8.82;1.70;;;;;;;12.75;64.43;100635.28;4750962;29;119594;-74
2023/12/23 04:53:03;;;;;;;6.82;1.73;;;;;;;12.78;64.41;100632.47;4757950;29;118347;-74
2023/12/23 04:55:30;;;;;;;7.18;1.58;;;;;;;12.78;64.39;100635.13;4771274;29;124604;-74
2023/12/23 04:57:57;;;;;;;7.22;1.58;;;;;;;12.79;64.27;100636.81;4757976;29;122608;-74
2023/12/23 05:00:25;;;;;;;8.43;1.95;;;;;;;12.80;64.24;100638.53;4766483;29;120217;-74
2023/12/23 05:02:52;;;;;;;8.13;1.73;;;;;;;12.80;64.28;100650.03;4772675;29;120100;-75
2023/12/23 05:05:19;;;;;;;7.07;1.48;;;;;;;12.81;64.15;100645.59;4754955;29;123600;-74
2023/12/23 05:07:48;;;;;;;6.88;1.35;;;;;;;12.83;64.10;100633.06;4757730;29;123608;-74
2023/12/23 05:10:18;;;;;;;7.18;1.23;;;;;;;12.83;64.01;100630.41;4761689;29;118845;-74
2023/12/23 05:12:46;;;;;;;12.13;1.80;;;;;;;12.85;63.99;100628.50;4749668;29;118821;-75
2023/12/23 05:15:13;;;;;;;7.72;1.60;;;;;;;12.85;63.93;100632.00;4745186;29;123765;-75
2023/12/23 05:17:41;;;;;;;7.40;1.60;;;;;;;12.87;63.92;100618.66;4748744;29;124220;-75
2023/12/23 05:20:09;;;;;;;8.20;1.35;;;;;;;12.87;63.70;100617.78;4772278;29;119814;-75
2023/12/23 05:22:36;;;;;;;5.28;1.52;;;;;;;12.88;63.86;100604.38;4772016;29;119444;-74
2023/12/23 05:25:04;;;;;;;11.20;1.58;;;;;;;12.89;63.69;100611.44;4766656;29;123891;-75
2023/12/23 05:27:31;;;;;;;10.00;1.63;;;;;;;12.90;63.74;100613.13;4773706;29;123767;-74
2023/12/23 05:29:58;;;;;;;8.63;1.90;;;;;;;12.91;63.72;100614.00;4771259;29;119549;-75
2023/12/23 05:32:26;;;;;;;11.55;1.70;;;;;;;12.91;63.63;100622.81;4755261;29;119910;-75
2023/12/23 05:34:57;;;;;;;4.43;1.60;;;;;;;12.90;63.43;100613.13;4765715;29;123891;-75
2023/12/23 05:37:24;;;;;;;9.93;1.98;;;;;;;12.90;63.41;100602.50;4772813;29;124895;-75
2023/12/23 05:39:51;;;;;;;5.65;1.42;;;;;;;12.91;63.40;100604.22;4770428;29;118269;-75
2023/12/23 05:42:19;;;;;;;6.75;1.52;;;;;;;12.91;63.51;100598.91;4762375;29;119042;-75
2023/12/23 05:44:46;;;;;;;9.55;2.00;;;;;;;12.92;63.29;100600.63;4764452;29;124699;-74
2023/12/23 05:47:13;;;;;;;6.10;1.60;;;;;;;12.92;63.37;100590.00;4775005;29;123859;-75
2023/12/23 05:49:40;;;;;;;6.78;1.45;;;;;;;12.93;63.45;100606.81;4771531;29;121107;-75
2023/12/23 05:52:07;;;;;;;8.25;1.63;;;;;;;12.94;63.44;100588.09;4772645;29;120098;-75
2023/12/23 05:54:34;;;;;;;8.10;1.73;;;;;;;12.95;63.25;100595.13;4756531;29;122930;-75
2023/12/23 05:57:02;;;;;;;6.72;1.60;;;;;;;12.95;63.41;100621.69;4772294;29;122987;-75
2023/12/23 05:59:29;;;;;;;12.07;1.88;;;;;;;12.95;63.20;100611.06;4766119;29;119401;-74
2023/12/23 06:01:56;;;;;;;5.22;1.38;;;;;;;12.96;63.15;100612.78;4771541;29;119251;-74
2023/12/23 06:04:23;;;;;;;12.23;1.77;;;;;;;12.96;63.24;100604.81;4763263;29;124054;-75
2023/12/23 06:06:50;;;;;;;8.38;1.67;;;;;;;12.97;63.03;100603.84;4758410;29;122738;-74
2023/12/23 06:09:17;;;;;;;10.27;2.00;;;;;;;12.98;63.03;100610.91;4763521;29;119999;-74
2023/12/23 06:11:44;;;;;;;7.93;1.80;;;;;;;12.98;63.05;100608.25;4774329;29;119337;-74
2023/12/23 06:14:12;;;;;;;12.55;2.17;;;;;;;12.99;62.81;100596.63;4770657;29;124796;-74
2023/12/23 06:16:42;;;;;;;7.85;1.80;;;;;;;12.99;63.05;100580.69;4760345;29;123783;-75
2023/12/23 06:19:09;;;;;;;8.50;1.52;;;;;;;12.98;62.82;100594.94;4766560;29;117475;-74
2023/12/23 06:21:36;;;;;;;9.50;1.65;;;;;;;12.96;63.12;100602.16;4757293;29;118047;-74
2023/12/23 06:24:04;;;;;;;6.97;2.00;;;;;;;12.94;62.98;100604.06;4771976;29;123690;-74
2023/12/23 06:26:31;;;;;;;8.88;1.73;;;;;;;12.92;63.00;100595.31;4775467;29;123807;-74
2023/12/23 06:28:58;;;;;;;11.48;2.13;;;;;;;12.90;63.19;100597.19;4773761;29;119361;-74
2023/12/23 06:31:26;;;;;;;12.13;2.00;;;;;;;12.87;63.19;100597.38;4762882;29;119744;-74
2023/12/23 06:33:53;;;;;;;6.18;1.92;;;;;;;12.84;63.34;100606.38;4777438;29;123985;-74
2023/12/23 06:36:20;;;;;;;7.93;1.95;;;;;;;12.82;63.45;100602.09;4756906;29;124843;-74
2023/12/23 06:38:48;;;;;;;9.02;1.60;;;;;;;12.80;63.54;100601.34;4759549;29;120631;-73
2023/12/23 06:41:15;;;;;;;10.75;1.88;;;;;;;12.79;63.53;100595.19;4773837;29;119792;-74
2023/12/23 06:43:43;;;;;;;10.38;2.20;;;;;;;12.77;63.65;100602.38;4769812;29;124754;-74
2023/12/23 06:46:19;;;;;;;13.23;2.10;;;;;;;12.76;63.56;100599.81;4768667;29;123459;-75
2023/12/23 06:48:46;;;;;;;13.60;2.13;;;;;;;12.74;63.63;100591.06;4757636;29;118801;-75
2023/12/23 06:51:13;;;;;;;9.70;1.90;;;;;;;12.73;63.79;100623.88;4779154;29;118787;-74
2023/12/23 06:53:41;;;;;;;7.25;1.80;;;;;;;12.73;63.79;100605.28;4749941;29;124401;-75
2023/12/23 06:56:08;;;;;;;7.78;1.60;;;;;;;12.73;63.80;100613.25;4767817;29;124051;-75
2023/12/23 06:58:36;;;;;;;9.30;1.90;;;;;;;12.74;64.09;100601.69;4763501;29;119341;-75
2023/12/23 07:01:03;;;;;;;12.02;2.05;;;;;;;12.71;63.97;100596.56;4777438;29;118459;-75
2023/12/23 07:03:30;;;;;;;8.85;1.67;;;;;;;12.74;64.06;100585.75;4762011;29;124416;-75
2023/12/23 07:05:57;;;;;;;11.60;2.05;;;;;;;12.72;64.06;100577.03;4772649;29;124619;-75
2023/12/23 07:08:25;;;;;;;12.88;1.92;;;;;;;12.73;64.10;100584.03;4768916;29;119248;-75
2023/12/23 07:10:52;;;;;;;9.35;2.13;;;;;;;12.72;64.11;100583.19;4775075;29;119028;-75
2023/12/23 07:13:19;;;;;;;10.90;1.90;;;;;;;12.72;64.10;100592.97;4769008;29;124857;-74
2023/12/23 07:15:46;;;;;;;10.00;1.80;;;;;;;12.72;64.14;100607.09;4759169;29;122970;-74
2023/12/23 07:18:13;;;;;;;10.10;1.83;;;;;;;12.74;64.25;100585.75;4771753;29;119289;-75
2023/12/23 07:20:42;;;;;;;7.03;1.60;;;;;;;12.73;64.17;100595.50;4753511;29;119535;-74
2023/12/23 07:23:10;;;;;;;9.90;1.65;;;;;;;12.73;64.15;100600.81;4772438;29;124812;-74
2023/12/23 07:25:37;;;;;;;5.95;1.73;;;;;;;12.74;64.13;100597.22;4768998;29;122295;-75
2023/12/23 07:28:04;;;;;;;8.23;1.70;;;;;;;12.77;64.01;100606.81;4738355;29;119322;-74
2023/12/23 07:30:32;;;;;;;9.43;1.77;;;;;;;12.77;64.09;100601.50;4773643;29;119762;-74
2023/12/23 07:32:59;;;;;;;9.20;1.70;;;;;;;12.79;63.95;100596.94;4750786;29;123018;-75
2023/12/23 07:35:27;;;;;;;6.20;1.42;;;;;;;12.82;64.15;100615.38;4771467;29;123906;-74
2023/12/23 07:37:54;;;;;;;8.20;1.70;;;;;;;12.83;64.13;100612.66;4761693;29;118195;-75
2023/12/23 07:40:22;;;;;;;7.75;1.10;;;;;;;12.85;64.10;100604.59;4777124;29;118915;-74
2023/12/23 07:42:51;;;;;;;6.05;1.08;;;;;;;12.85;64.16;100613.41;4761009;29;124795;-74
2023/12/23 07:45:18;;;;;;;4.93;1.25;;;;;;;12.88;64.07;100625.66;4774488;29;123828;-74
2023/12/23 07:47:46;;;;;;;5.55;1.27;;;;;;;12.90;64.28;100613.13;4758480;29;119755;-75
2023/12/23 07:50:14;;;;;;;4.28;1.10;;;;;;;12.93;64.17;100610.31;4757919;29;118757;-75
2023/12/23 07:52:41;;;;;;;3.08;1.10;;;;;;;12.96;64.07;100611.91;4774701;29;124271;-75
2023/12/23 07:55:08;;;;;;;8.98;1.50;;;;;;;12.98;64.01;100624.19;4754211;29;124359;-75
2023/12/23 07:57:36;;;;;;;7.47;1.25;;;;;;;13.01;63.96;100621.31;4766519;29;119600;-75
2023/12/23 08:00:06;;;;;;;9.13;1.35;;;;;;;13.05;64.08;100617.56;4757231;29;119112;-75
2023/12/23 08:02:33;;;;;;;8.80;1.45;;;;;;;13.08;63.99;100626.31;4771647;29;124467;-74
2023/12/23 08:05:00;;;;;;;6.05;1.33;;;;;;;13.11;63.96;100631.44;4771167;29;123978;-74
2023/12/23 08:07:27;;;;;;;4.18;1.08;;;;;;;13.14;63.79;100625.94;4758408;29;118379;-74
2023/12/23 08:09:54;;;;;;;9.07;1.52;;;;;;;13.16;63.81;100645.31;4771431;29;118352;-74
2023/12/23 08:12:21;;;;;;;8.73;1.20;;;;;;;13.17;63.90;100609.81;4764814;29;124420;-74
2023/12/23 08:14:49;;;;;;;3.95;1.00;;;;;;;13.20;63.76;100617.59;4751657;29;122995;-74
2023/12/23 08:17:16;;;;;;;6.50;1.50;;;;;;;13.22;63.71;100621.00;4775462;29;120713;-74
2023/12/23 08:19:43;;;;;;;4.10;1.23;;;;;;;13.24;63.98;100608.47;4775620;29;119888;-76
2023/12/23 08:22:10;;;;;;;5.88;1.17;;;;;;;13.25;63.71;100613.72;4761833;29;124516;-76
2023/12/23 08:24:37;;;;;;;5.15;1.15;;;;;;;13.28;63.66;100602.03;4773158;29;124005;-74
2023/12/23 08:27:04;;;;;;;4.05;1.02;;;;;;;13.30;63.78;100610.81;4767200;29;118337;-74
2023/12/23 08:29:32;;;;;;;4.93;1.02;;;;;;;13.31;63.61;100628.47;4767895;29;118903;-74
2023/12/23 08:32:00;;;;;;;2.80;1.17;;;;;;;13.33;63.67;100610.63;4772430;29;124091;-74
2023/12/23 08:34:28;;;;;;;7.90;1.27;;;;;;;13.35;63.50;100619.34;4749523;29;124022;-74
2023/12/23 08:36:55;;;;;;;6.85;1.30;;;;;;;13.37;63.46;100622.81;4772269;29;119419;-74
2023/12/23 08:39:22;;;;;;;6.78;1.10;;;;;;;13.39;63.31;100636.00;4761127;29;118445;-74
2023/12/23 08:41:49;;;;;;;10.13;1.42;;;;;;;13.40;63.26;100649.19;4773891;29;126071;-75
2023/12/23 08:44:17;;;;;;;2.90;1.00;;;;;;;13.43;63.31;100637.53;4777896;29;123747;-75
2023/12/23 08:46:44;;;;;;;5.43;1.33;;;;;;;13.44;63.20;100641.91;4758607;29;119466;-75
2023/12/23 08:49:12;;;;;;;3.33;1.00;;;;;;;13.44;63.24;100634.75;4771448;29;118847;-74
2023/12/23 08:51:39;;;;;;;9.43;1.27;;;;;;;13.47;63.01;100633.75;4758056;29;125001;-75
2023/12/23 08:54:07;;;;;;;2.20;0.73;;;;;;;13.49;63.11;100637.16;4769922;29;123936;-75
2023/12/23 08:56:34;;;;;;;6.53;1.05;;;;;;;13.51;63.08;100634.41;4769582;29;119112;-75
2023/12/23 08:59:01;;;;;;;6.20;0.88;;;;;;;13.53;63.07;100648.47;4752633;29;120143;-74
2023/12/23 09:01:28;;;;;;;3.30;0.82;;;;;;;13.55;63.15;100651.91;4770131;29;124232;-75
2023/12/23 09:03:55;;;;;;;4.00;0.93;;;;;;;13.57;62.89;100655.31;4766311;29;124080;-75
2023/12/23 09:06:22;;;;;;;3.28;0.82;;;;;;;13.59;62.96;100653.41;4768197;29;120968;-74
2023/12/23 09:08:52;;;;;;;3.90;0.88;;;;;;;13.60;62.84;100655.16;4771854;29;120725;-75
2023/12/23 09:11:20;;;;;;;4.53;1.10;;;;;;;13.62;62.94;100669.22;4768757;29;124048;-75
2023/12/23 09:13:47;;;;;;;4.65;0.80;;;;;;;13.63;62.86;100665.59;4776255;29;124453;-75
2023/12/23 09:16:14;;;;;;;5.55;1.00;;;;;;;13.64;62.80;100672.63;4755816;29;118994;-75
2023/12/23 09:18:42;;;;;;;5.15;1.23;;;;;;;13.66;62.79;100664.56;4766085;29;118939;-75
2023/12/23 09:21:09;;;;;;;4.57;1.00;;;;;;;13.67;62.70;100687.56;4769873;29;123971;-75
2023/12/23 09:23:37;;;;;;;6.25;1.00;;;;;;;13.68;62.63;100679.47;4775657;29;122872;-75
2023/12/23 09:26:04;;;;;;;3.35;0.90;;;;;;;13.70;62.81;100688.22;4761273;29;119548;-75
2023/12/23 09:28:31;;;;;;;6.15;1.00;;;;;;;13.70;62.73;100672.25;4767594;29;118560;-75
2023/12/23 09:30:59;;;;;;;3.35;0.85;;;;;;;13.70;62.63;100677.56;4765738;29;123611;-75
2023/12/23 09:33:26;;;;;;;8.77;1.00;;;;;;;13.67;62.50;100688.41;4766345;29;123604;-75
2023/12/23 09:35:53;;;;;;;6.10;1.17;;;;;;;13.68;62.62;100684.81;4769665;29;119098;-76
2023/12/23 09:38:20;;;;;;;3.25;1.10;;;;;;;13.66;62.72;100670.72;4768142;29;118916;-75
2023/12/23 09:40:48;;;;;;;4.47;1.02;;;;;;;13.66;62.64;100697.34;4752142;29;122029;-74
2023/12/23 09:43:17;;;;;;;11.15;1.20;;;;;;;13.65;62.49;100695.63;4765716;29;123992;-75
2023/12/23 09:45:46;;;;;;;3.30;0.95;;;;;;;13.64;62.63;100693.94;4752860;29;119439;-75
2023/12/23 09:48:13;;;;;;;4.93;1.38;;;;;;;13.64;62.57;100704.56;4770695;29;118734;-76
2023/12/23 09:50:41;;;;;;;4.57;0.80;;;;;;;13.63;62.64;100718.81;4754166;29;124145;-78
2023/12/23 09:53:12;;;;;;;6.65;1.10;;;;;;;13.61;62.55;100696.75;4762076;29;124109;-76
2023/12/23 09:55:40;;;;;;;4.75;1.00;;;;;;;13.62;62.63;100701.16;4772123;29;120805;-75
2023/12/23 09:58:08;;;;;;;8.63;1.05;;;;;;;13.61;62.55;100712.72;4776354;29;120010;-75
2023/12/23 10:00:35;;;;;;;4.55;1.08;;;;;;;13.61;62.67;100704.75;4756017;29;123212;-75
2023/12/23 10:03:06;;;;;;;7.07;1.20;;;;;;;13.60;62.75;100709.22;4777288;29;124121;-75
2023/12/23 10:05:40;;;;;;;6.38;1.05;;;;;;;13.60;62.58;100708.38;4760210;29;119053;-75
2023/12/23 10:08:08;;;;;;;3.80;0.90;;;;;;;13.62;62.51;100711.78;4774696;29;119003;-75
2023/12/23 10:10:35;;;;;;;3.28;0.88;;;;;;;13.62;62.54;100717.97;4762480;29;126278;-76
2023/12/23 10:13:02;;;;;;;5.38;1.10;;;;;;;13.63;62.51;100702.84;4775178;29;124120;-76
2023/12/23 10:15:29;;;;;;;4.38;1.08;;;;;;;13.65;62.64;100706.25;4771078;29;118993;-75
2023/12/23 10:17:58;;;;;;;3.97;1.05;;;;;;;13.66;62.47;100702.66;4757888;29;117240;-75
2023/12/23 10:20:26;;;;;;;5.75;1.10;;;;;;;13.68;62.41;100706.09;4774420;29;124595;-76
2023/12/23 10:22:53;;;;;;;4.68;0.98;;;;;;;13.70;62.33;100714.84;4774300;29;123775;-75
2023/12/23 10:25:20;;;;;;;4.30;1.08;;;;;;;13.70;62.36;100714.84;4775574;29;119644;-75
2023/12/23 10:27:53;;;;;;;4.25;1.10;;;;;;;13.70;62.38;100714.84;4766099;29;119215;-75
2023/12/23 10:30:24;;;;;;;5.55;0.90;;;;;;;13.72;62.20;100694.31;4756911;29;124649;-76
2023/12/23 10:32:54;;;;;;;6.28;1.10;;;;;;;13.73;62.33;100737.75;4763481;29;124153;-75
2023/12/23 10:35:25;;;;;;;3.55;1.38;;;;;;;13.73;62.27;100709.34;4768730;29;119546;-75
2023/12/23 10:37:58;;;;;;;7.50;1.30;;;;;;;13.74;62.38;100688.91;4776057;29;118804;-75
2023/12/23 10:40:28;;;;;;;7.00;1.15;;;;;;;13.76;62.32;100698.50;4777837;29;124316;-75
2023/12/23 10:42:58;;;;;;;6.32;1.20;;;;;;;13.76;62.47;100690.50;4762575;29;125140;-75
2023/12/23 10:45:25;;;;;;;3.80;1.10;;;;;;;13.78;62.30;100707.22;4758800;29;120007;-75
2023/12/23 10:47:53;;;;;;;6.10;1.13;;;;;;;13.79;62.34;100698.31;4773890;29;119876;-75
2023/12/23 10:50:22;;;;;;;4.53;0.98;;;;;;;13.79;62.07;100693.00;4765570;29;124050;-75
2023/12/23 10:52:52;;;;;;;3.42;1.10;;;;;;;13.82;62.12;100692.81;4757449;29;125104;-75
2023/12/23 10:55:23;;;;;;;9.10;1.05;;;;;;;13.83;62.19;100689.19;4773853;29;119602;-75
2023/12/23 10:57:53;;;;;;;4.25;0.95;;;;;;;13.86;62.11;100692.59;4771292;29;119411;-74
2023/12/23 11:00:20;;;;;;;3.83;1.05;;;;;;;13.89;61.94;100703.09;4755960;29;123490;-76
2023/12/23 11:02:54;;;;;;;5.85;0.90;;;;;;;13.90;61.84;100688.81;4775439;29;123913;-75
2023/12/23 11:05:22;;;;;;;7.45;1.20;;;;;;;13.93;61.98;100704.59;4768146;29;118666;-75
2023/12/23 11:07:51;;;;;;;4.38;0.88;;;;;;;13.94;62.03;100711.66;4774748;29;119116;-75
2023/12/23 11:10:30;;;;;;;5.97;1.02;;;;;;;13.97;61.87;100716.75;4764545;29;124020;-75
2023/12/23 11:12:59;;;;;;;4.85;1.10;;;;;;;13.98;61.94;100718.50;4754948;29;123589;-75
2023/12/23 11:15:27;;;;;;;5.38;1.20;;;;;;;14.00;61.91;100711.25;4774053;29;119686;-75
2023/12/23 11:17:54;;;;;;;7.13;0.98;;;;;;;14.04;61.72;100725.25;4772314;29;118964;-75
2023/12/23 11:20:31;;;;;;;3.75;0.90;;;;;;;14.04;61.65;100728.75;4771228;29;123134;-74